sensor_id;sensor_type;location;lat;lon;timestamp;P1;durP1;ratioP1;P2;durP2;ratioP2
5841;SDS011;2947;52.276;9.946;2023-05-10T00:01:23;7.57;;;2.63;;
5841;SDS011;2947;52.276;9.946;2023-05-10T00:03:49;6.53;;;3.10;;
5841;SDS011;2947;52.276;9.946;2023-05-10T00:06:15;6.10;;;3.00;;
5841;SDS011;2947;52.276;9.946;2023-05-10T00:08:41;6.25;;;2.88;;
5841;SDS011;2947;52.276;9.946;2023-05-10T00:11:07;4.50;;;2.88;;
5841;SDS011;2947;52.276;9.946;2023-05-10T00:13:32;6.22;;;3.30;;
5841;SDS011;2947;52.276;9.946;2023-05-10T00:15:58;5.00;;;2.90;;
5841;SDS011;2947;52.276;9.946;2023-05-10T00:18:24;4.78;;;3.00;;
5841;SDS011;2947;52.276;9.946;2023-05-10T00:20:50;4.82;;;2.72;;
5841;SDS011;2947;52.276;9.946;2023-05-10T00:23:15;5.30;;;2.90;;
5841;SDS011;2947;52.276;9.946;2023-05-10T00:25:41;13.38;;;4.45;;
5841;SDS011;2947;52.276;9.946;2023-05-10T00:28:07;6.25;;;3.30;;
5841;SDS011;2947;52.276;9.946;2023-05-10T00:30:33;5.68;;;3.28;;
5841;SDS011;2947;52.276;9.946;2023-05-10T00:32:58;6.93;;;3.05;;
5841;SDS011;2947;52.276;9.946;2023-05-10T00:35:24;7.43;;;2.90;;
5841;SDS011;2947;52.276;9.946;2023-05-10T00:37:50;5.93;;;3.65;;
5841;SDS011;2947;52.276;9.946;2023-05-10T00:40:16;6.50;;;3.25;;
5841;SDS011;2947;52.276;9.946;2023-05-10T00:42:42;7.20;;;3.70;;
5841;SDS011;2947;52.276;9.946;2023-05-10T00:45:08;5.60;;;3.50;;
5841;SDS011;2947;52.276;9.946;2023-05-10T00:47:34;10.95;;;3.88;;
5841;SDS011;2947;52.276;9.946;2023-05-10T00:50:00;7.88;;;3.72;;
5841;SDS011;2947;52.276;9.946;2023-05-10T00:52:26;6.20;;;3.30;;
5841;SDS011;2947;52.276;9.946;2023-05-10T00:54:53;7.50;;;3.60;;
5841;SDS011;2947;52.276;9.946;2023-05-10T00:57:19;7.70;;;3.35;;
5841;SDS011;2947;52.276;9.946;2023-05-10T00:59:46;6.78;;;3.45;;
5841;SDS011;2947;52.276;9.946;2023-05-10T01:02:12;6.18;;;3.40;;
5841;SDS011;2947;52.276;9.946;2023-05-10T01:04:38;6.00;;;4.03;;
5841;SDS011;2947;52.276;9.946;2023-05-10T01:07:04;8.27;;;3.75;;
5841;SDS011;2947;52.276;9.946;2023-05-10T01:09:30;5.65;;;3.65;;
5841;SDS011;2947;52.276;9.946;2023-05-10T01:11:57;5.13;;;3.65;;
5841;SDS011;2947;52.276;9.946;2023-05-10T01:14:23;7.80;;;4.18;;
5841;SDS011;2947;52.276;9.946;2023-05-10T01:16:50;6.47;;;3.78;;
5841;SDS011;2947;52.276;9.946;2023-05-10T01:35:51;8.48;;;3.63;;
5841;SDS011;2947;52.276;9.946;2023-05-10T01:41:08;6.63;;;3.65;;
5841;SDS011;2947;52.276;9.946;2023-05-10T01:44:03;6.68;;;3.97;;
5841;SDS011;2947;52.276;9.946;2023-05-10T01:46:58;5.55;;;3.63;;
5841;SDS011;2947;52.276;9.946;2023-05-10T01:49:32;6.13;;;4.18;;
5841;SDS011;2947;52.276;9.946;2023-05-10T01:52:15;7.80;;;4.47;;
5841;SDS011;2947;52.276;9.946;2023-05-10T01:54:51;6.10;;;4.10;;
5841;SDS011;2947;52.276;9.946;2023-05-10T01:57:21;13.35;;;4.47;;
5841;SDS011;2947;52.276;9.946;2023-05-10T01:59:51;10.73;;;4.72;;
5841;SDS011;2947;52.276;9.946;2023-05-10T02:02:21;6.18;;;4.10;;
5841;SDS011;2947;52.276;9.946;2023-05-10T02:04:49;7.80;;;4.85;;
5841;SDS011;2947;52.276;9.946;2023-05-10T02:07:16;7.05;;;4.32;;
5841;SDS011;2947;52.276;9.946;2023-05-10T02:09:43;12.95;;;5.18;;
5841;SDS011;2947;52.276;9.946;2023-05-10T02:12:12;7.30;;;4.82;;
5841;SDS011;2947;52.276;9.946;2023-05-10T02:14:40;7.93;;;4.70;;
5841;SDS011;2947;52.276;9.946;2023-05-10T02:17:07;13.63;;;4.45;;
5841;SDS011;2947;52.276;9.946;2023-05-10T02:19:35;11.98;;;4.28;;
5841;SDS011;2947;52.276;9.946;2023-05-10T02:22:03;6.50;;;4.88;;
5841;SDS011;2947;52.276;9.946;2023-05-10T02:24:30;7.82;;;4.75;;
5841;SDS011;2947;52.276;9.946;2023-05-10T02:26:58;7.88;;;4.40;;
5841;SDS011;2947;52.276;9.946;2023-05-10T02:29:25;6.72;;;4.55;;
5841;SDS011;2947;52.276;9.946;2023-05-10T02:31:52;7.97;;;4.95;;
5841;SDS011;2947;52.276;9.946;2023-05-10T02:34:20;9.27;;;4.70;;
5841;SDS011;2947;52.276;9.946;2023-05-10T02:36:47;14.10;;;5.45;;
5841;SDS011;2947;52.276;9.946;2023-05-10T02:39:13;8.30;;;4.80;;
5841;SDS011;2947;52.276;9.946;2023-05-10T02:41:40;9.13;;;4.97;;
5841;SDS011;2947;52.276;9.946;2023-05-10T02:44:08;7.13;;;4.53;;
5841;SDS011;2947;52.276;9.946;2023-05-10T02:46:35;8.07;;;5.18;;
5841;SDS011;2947;52.276;9.946;2023-05-10T02:49:02;8.23;;;5.15;;
5841;SDS011;2947;52.276;9.946;2023-05-10T02:51:30;8.30;;;5.05;;
5841;SDS011;2947;52.276;9.946;2023-05-10T02:54:01;7.82;;;4.88;;
5841;SDS011;2947;52.276;9.946;2023-05-10T02:56:36;13.00;;;5.63;;
5841;SDS011;2947;52.276;9.946;2023-05-10T02:59:05;9.65;;;4.78;;
5841;SDS011;2947;52.276;9.946;2023-05-10T03:01:31;9.13;;;5.38;;
5841;SDS011;2947;52.276;9.946;2023-05-10T03:03:57;8.30;;;5.35;;
5841;SDS011;2947;52.276;9.946;2023-05-10T03:06:23;10.57;;;5.57;;
5841;SDS011;2947;52.276;9.946;2023-05-10T03:08:49;7.20;;;4.63;;
5841;SDS011;2947;52.276;9.946;2023-05-10T03:11:32;8.27;;;5.10;;
5841;SDS011;2947;52.276;9.946;2023-05-10T03:20:08;7.78;;;5.60;;
5841;SDS011;2947;52.276;9.946;2023-05-10T03:22:50;9.52;;;5.25;;
5841;SDS011;2947;52.276;9.946;2023-05-10T03:25:21;8.38;;;5.15;;
5841;SDS011;2947;52.276;9.946;2023-05-10T03:27:49;8.70;;;5.22;;
5841;SDS011;2947;52.276;9.946;2023-05-10T03:30:15;9.50;;;5.63;;
5841;SDS011;2947;52.276;9.946;2023-05-10T03:32:41;9.32;;;6.15;;
5841;SDS011;2947;52.276;9.946;2023-05-10T03:35:07;9.98;;;5.55;;
5841;SDS011;2947;52.276;9.946;2023-05-10T03:37:34;10.02;;;5.63;;
5841;SDS011;2947;52.276;9.946;2023-05-10T03:40:00;9.02;;;5.68;;
5841;SDS011;2947;52.276;9.946;2023-05-10T03:42:27;8.75;;;5.93;;
5841;SDS011;2947;52.276;9.946;2023-05-10T03:44:53;9.00;;;5.85;;
5841;SDS011;2947;52.276;9.946;2023-05-10T03:47:18;11.95;;;5.95;;
5841;SDS011;2947;52.276;9.946;2023-05-10T03:49:44;8.57;;;6.18;;
5841;SDS011;2947;52.276;9.946;2023-05-10T03:52:10;11.85;;;6.05;;
5841;SDS011;2947;52.276;9.946;2023-05-10T03:54:36;9.70;;;5.75;;
5841;SDS011;2947;52.276;9.946;2023-05-10T03:57:02;8.52;;;5.45;;
5841;SDS011;2947;52.276;9.946;2023-05-10T03:59:28;12.02;;;6.38;;
5841;SDS011;2947;52.276;9.946;2023-05-10T04:01:55;11.13;;;6.18;;
5841;SDS011;2947;52.276;9.946;2023-05-10T04:04:21;11.05;;;6.60;;
5841;SDS011;2947;52.276;9.946;2023-05-10T04:06:47;9.10;;;6.70;;
5841;SDS011;2947;52.276;9.946;2023-05-10T04:09:12;10.07;;;6.20;;
5841;SDS011;2947;52.276;9.946;2023-05-10T04:11:38;10.60;;;6.75;;
5841;SDS011;2947;52.276;9.946;2023-05-10T04:14:04;9.15;;;6.53;;
5841;SDS011;2947;52.276;9.946;2023-05-10T04:16:30;9.73;;;6.60;;
5841;SDS011;2947;52.276;9.946;2023-05-10T04:18:56;8.40;;;6.30;;
5841;SDS011;2947;52.276;9.946;2023-05-10T04:21:22;10.68;;;5.88;;
5841;SDS011;2947;52.276;9.946;2023-05-10T04:23:48;9.23;;;6.00;;
5841;SDS011;2947;52.276;9.946;2023-05-10T04:26:13;9.68;;;6.72;;
5841;SDS011;2947;52.276;9.946;2023-05-10T04:28:40;10.13;;;7.35;;
5841;SDS011;2947;52.276;9.946;2023-05-10T04:31:06;10.13;;;7.18;;
5841;SDS011;2947;52.276;9.946;2023-05-10T04:33:34;10.93;;;7.85;;
5841;SDS011;2947;52.276;9.946;2023-05-10T04:36:01;11.98;;;6.78;;
5841;SDS011;2947;52.276;9.946;2023-05-10T04:38:27;13.15;;;6.68;;
5841;SDS011;2947;52.276;9.946;2023-05-10T04:40:53;10.77;;;6.75;;
5841;SDS011;2947;52.276;9.946;2023-05-10T04:43:19;10.27;;;6.03;;
5841;SDS011;2947;52.276;9.946;2023-05-10T04:45:45;13.77;;;7.05;;
5841;SDS011;2947;52.276;9.946;2023-05-10T04:48:11;13.10;;;6.63;;
5841;SDS011;2947;52.276;9.946;2023-05-10T04:50:37;12.80;;;7.78;;
5841;SDS011;2947;52.276;9.946;2023-05-10T04:53:04;8.13;;;6.15;;
5841;SDS011;2947;52.276;9.946;2023-05-10T04:55:30;10.07;;;6.50;;
5841;SDS011;2947;52.276;9.946;2023-05-10T04:57:55;8.35;;;6.40;;
5841;SDS011;2947;52.276;9.946;2023-05-10T05:00:22;8.87;;;6.30;;
5841;SDS011;2947;52.276;9.946;2023-05-10T05:02:48;11.38;;;6.70;;
5841;SDS011;2947;52.276;9.946;2023-05-10T05:05:14;11.32;;;7.72;;
5841;SDS011;2947;52.276;9.946;2023-05-10T05:07:39;10.40;;;6.93;;
5841;SDS011;2947;52.276;9.946;2023-05-10T05:10:06;10.32;;;6.85;;
5841;SDS011;2947;52.276;9.946;2023-05-10T05:12:33;10.07;;;6.70;;
5841;SDS011;2947;52.276;9.946;2023-05-10T05:15:00;15.25;;;8.60;;
5841;SDS011;2947;52.276;9.946;2023-05-10T05:17:26;9.50;;;6.55;;
5841;SDS011;2947;52.276;9.946;2023-05-10T05:19:52;12.18;;;7.35;;
5841;SDS011;2947;52.276;9.946;2023-05-10T05:22:18;11.27;;;6.63;;
5841;SDS011;2947;52.276;9.946;2023-05-10T05:25:02;12.60;;;7.13;;
5841;SDS011;2947;52.276;9.946;2023-05-10T05:27:28;8.95;;;6.75;;
5841;SDS011;2947;52.276;9.946;2023-05-10T05:29:54;9.10;;;7.07;;
5841;SDS011;2947;52.276;9.946;2023-05-10T05:32:21;9.43;;;6.65;;
5841;SDS011;2947;52.276;9.946;2023-05-10T05:34:48;7.88;;;6.18;;
5841;SDS011;2947;52.276;9.946;2023-05-10T05:37:14;10.40;;;6.78;;
5841;SDS011;2947;52.276;9.946;2023-05-10T05:39:40;10.18;;;6.50;;
5841;SDS011;2947;52.276;9.946;2023-05-10T05:42:07;8.65;;;6.35;;
5841;SDS011;2947;52.276;9.946;2023-05-10T05:44:34;10.52;;;6.90;;
5841;SDS011;2947;52.276;9.946;2023-05-10T05:46:59;10.00;;;5.97;;
5841;SDS011;2947;52.276;9.946;2023-05-10T05:49:25;9.63;;;6.72;;
5841;SDS011;2947;52.276;9.946;2023-05-10T05:51:51;10.38;;;7.28;;
5841;SDS011;2947;52.276;9.946;2023-05-10T05:54:17;11.02;;;6.88;;
5841;SDS011;2947;52.276;9.946;2023-05-10T05:56:42;11.63;;;6.35;;
5841;SDS011;2947;52.276;9.946;2023-05-10T05:59:09;11.30;;;6.95;;
5841;SDS011;2947;52.276;9.946;2023-05-10T06:01:35;10.68;;;6.90;;
5841;SDS011;2947;52.276;9.946;2023-05-10T06:04:01;9.32;;;6.45;;
5841;SDS011;2947;52.276;9.946;2023-05-10T06:06:27;11.35;;;6.57;;
5841;SDS011;2947;52.276;9.946;2023-05-10T06:08:52;9.07;;;5.75;;
5841;SDS011;2947;52.276;9.946;2023-05-10T06:11:18;10.57;;;6.95;;
5841;SDS011;2947;52.276;9.946;2023-05-10T06:13:45;10.15;;;6.70;;
5841;SDS011;2947;52.276;9.946;2023-05-10T06:16:12;14.70;;;7.22;;
5841;SDS011;2947;52.276;9.946;2023-05-10T06:18:38;14.05;;;7.53;;
5841;SDS011;2947;52.276;9.946;2023-05-10T06:21:04;12.50;;;7.32;;
5841;SDS011;2947;52.276;9.946;2023-05-10T06:23:29;11.20;;;7.32;;
5841;SDS011;2947;52.276;9.946;2023-05-10T06:25:55;10.18;;;6.25;;
5841;SDS011;2947;52.276;9.946;2023-05-10T06:28:21;9.52;;;6.30;;
5841;SDS011;2947;52.276;9.946;2023-05-10T06:30:46;9.07;;;6.13;;
5841;SDS011;2947;52.276;9.946;2023-05-10T06:33:12;7.68;;;5.57;;
5841;SDS011;2947;52.276;9.946;2023-05-10T06:35:38;8.57;;;6.07;;
5841;SDS011;2947;52.276;9.946;2023-05-10T06:38:04;10.68;;;6.32;;
5841;SDS011;2947;52.276;9.946;2023-05-10T06:40:30;8.00;;;6.07;;
5841;SDS011;2947;52.276;9.946;2023-05-10T06:42:56;9.05;;;5.97;;
5841;SDS011;2947;52.276;9.946;2023-05-10T06:45:22;9.77;;;5.75;;
5841;SDS011;2947;52.276;9.946;2023-05-10T06:47:47;9.98;;;5.57;;
5841;SDS011;2947;52.276;9.946;2023-05-10T06:50:13;12.48;;;6.82;;
5841;SDS011;2947;52.276;9.946;2023-05-10T06:52:39;8.63;;;5.70;;
5841;SDS011;2947;52.276;9.946;2023-05-10T06:55:04;7.43;;;5.32;;
5841;SDS011;2947;52.276;9.946;2023-05-10T06:57:31;8.15;;;5.82;;
5841;SDS011;2947;52.276;9.946;2023-05-10T07:00:00;9.05;;;5.47;;
5841;SDS011;2947;52.276;9.946;2023-05-10T07:02:28;8.77;;;5.72;;
5841;SDS011;2947;52.276;9.946;2023-05-10T07:04:54;9.82;;;6.35;;
5841;SDS011;2947;52.276;9.946;2023-05-10T07:07:20;12.77;;;7.32;;
5841;SDS011;2947;52.276;9.946;2023-05-10T07:09:46;8.40;;;6.15;;
5841;SDS011;2947;52.276;9.946;2023-05-10T07:12:11;7.47;;;6.10;;
5841;SDS011;2947;52.276;9.946;2023-05-10T07:14:37;10.32;;;6.43;;
5841;SDS011;2947;52.276;9.946;2023-05-10T07:17:03;10.45;;;6.80;;
5841;SDS011;2947;52.276;9.946;2023-05-10T07:19:29;8.00;;;5.78;;
5841;SDS011;2947;52.276;9.946;2023-05-10T07:21:54;10.90;;;6.45;;
5841;SDS011;2947;52.276;9.946;2023-05-10T07:24:20;10.23;;;6.75;;
5841;SDS011;2947;52.276;9.946;2023-05-10T07:26:46;12.80;;;6.65;;
5841;SDS011;2947;52.276;9.946;2023-05-10T07:29:12;12.57;;;6.47;;
5841;SDS011;2947;52.276;9.946;2023-05-10T07:31:37;12.13;;;7.30;;
5841;SDS011;2947;52.276;9.946;2023-05-10T07:34:03;10.73;;;6.35;;
5841;SDS011;2947;52.276;9.946;2023-05-10T07:36:29;8.65;;;6.40;;
5841;SDS011;2947;52.276;9.946;2023-05-10T07:38:54;12.77;;;7.35;;
5841;SDS011;2947;52.276;9.946;2023-05-10T07:41:22;13.60;;;6.35;;
5841;SDS011;2947;52.276;9.946;2023-05-10T07:43:48;8.48;;;6.47;;
5841;SDS011;2947;52.276;9.946;2023-05-10T07:46:13;9.25;;;6.95;;
5841;SDS011;2947;52.276;9.946;2023-05-10T07:48:39;8.55;;;5.88;;
5841;SDS011;2947;52.276;9.946;2023-05-10T07:51:05;9.98;;;7.00;;
5841;SDS011;2947;52.276;9.946;2023-05-10T07:53:32;9.85;;;6.40;;
5841;SDS011;2947;52.276;9.946;2023-05-10T07:55:58;8.85;;;6.30;;
5841;SDS011;2947;52.276;9.946;2023-05-10T07:58:24;9.52;;;6.28;;
5841;SDS011;2947;52.276;9.946;2023-05-10T08:00:50;10.38;;;6.10;;
5841;SDS011;2947;52.276;9.946;2023-05-10T08:03:16;12.15;;;7.75;;
5841;SDS011;2947;52.276;9.946;2023-05-10T08:05:42;9.63;;;6.85;;
5841;SDS011;2947;52.276;9.946;2023-05-10T08:08:07;7.28;;;5.35;;
5841;SDS011;2947;52.276;9.946;2023-05-10T08:10:33;9.13;;;6.03;;
5841;SDS011;2947;52.276;9.946;2023-05-10T08:12:59;6.68;;;4.70;;
5841;SDS011;2947;52.276;9.946;2023-05-10T08:15:24;8.00;;;5.03;;
5841;SDS011;2947;52.276;9.946;2023-05-10T08:17:53;7.25;;;4.95;;
5841;SDS011;2947;52.276;9.946;2023-05-10T08:20:19;7.80;;;5.18;;
5841;SDS011;2947;52.276;9.946;2023-05-10T08:22:45;6.43;;;4.60;;
5841;SDS011;2947;52.276;9.946;2023-05-10T08:25:11;6.63;;;4.55;;
5841;SDS011;2947;52.276;9.946;2023-05-10T08:27:37;6.43;;;3.38;;
5841;SDS011;2947;52.276;9.946;2023-05-10T08:30:02;5.35;;;2.80;;
5841;SDS011;2947;52.276;9.946;2023-05-10T08:32:29;4.80;;;2.80;;
5841;SDS011;2947;52.276;9.946;2023-05-10T08:34:55;4.95;;;2.65;;
5841;SDS011;2947;52.276;9.946;2023-05-10T08:37:22;5.78;;;2.75;;
5841;SDS011;2947;52.276;9.946;2023-05-10T08:39:48;4.63;;;2.10;;
5841;SDS011;2947;52.276;9.946;2023-05-10T08:42:15;4.85;;;2.25;;
5841;SDS011;2947;52.276;9.946;2023-05-10T08:44:46;3.38;;;1.92;;
5841;SDS011;2947;52.276;9.946;2023-05-10T08:47:13;3.17;;;1.60;;
5841;SDS011;2947;52.276;9.946;2023-05-10T08:49:41;2.42;;;1.40;;
5841;SDS011;2947;52.276;9.946;2023-05-10T08:52:09;2.67;;;1.45;;
5841;SDS011;2947;52.276;9.946;2023-05-10T08:54:38;3.55;;;1.80;;
5841;SDS011;2947;52.276;9.946;2023-05-10T08:57:04;2.33;;;1.40;;
5841;SDS011;2947;52.276;9.946;2023-05-10T08:59:30;2.00;;;1.00;;
5841;SDS011;2947;52.276;9.946;2023-05-10T09:01:59;2.35;;;1.17;;
5841;SDS011;2947;52.276;9.946;2023-05-10T09:04:26;3.13;;;1.10;;
5841;SDS011;2947;52.276;9.946;2023-05-10T09:06:54;2.20;;;1.02;;
5841;SDS011;2947;52.276;9.946;2023-05-10T09:09:20;2.10;;;1.13;;
5841;SDS011;2947;52.276;9.946;2023-05-10T09:11:47;2.20;;;1.30;;
5841;SDS011;2947;52.276;9.946;2023-05-10T09:14:13;1.75;;;0.73;;
5841;SDS011;2947;52.276;9.946;2023-05-10T09:16:40;3.70;;;1.10;;
5841;SDS011;2947;52.276;9.946;2023-05-10T09:19:06;2.42;;;1.10;;
5841;SDS011;2947;52.276;9.946;2023-05-10T09:21:34;3.45;;;0.90;;
5841;SDS011;2947;52.276;9.946;2023-05-10T09:24:04;2.63;;;1.10;;
5841;SDS011;2947;52.276;9.946;2023-05-10T09:26:32;1.70;;;0.70;;
5841;SDS011;2947;52.276;9.946;2023-05-10T09:28:58;2.08;;;0.75;;
5841;SDS011;2947;52.276;9.946;2023-05-10T09:31:28;1.95;;;0.80;;
5841;SDS011;2947;52.276;9.946;2023-05-10T09:34:20;1.75;;;0.98;;
5841;SDS011;2947;52.276;9.946;2023-05-10T09:36:56;2.10;;;1.00;;
5841;SDS011;2947;52.276;9.946;2023-05-10T09:41:59;2.10;;;1.20;;
5841;SDS011;2947;52.276;9.946;2023-05-10T09:44:31;1.83;;;1.00;;
5841;SDS011;2947;52.276;9.946;2023-05-10T09:46:58;1.90;;;1.10;;
5841;SDS011;2947;52.276;9.946;2023-05-10T09:49:25;2.42;;;1.13;;
5841;SDS011;2947;52.276;9.946;2023-05-10T09:51:59;2.47;;;1.08;;
5841;SDS011;2947;52.276;9.946;2023-05-10T09:54:29;4.18;;;1.23;;
5841;SDS011;2947;52.276;9.946;2023-05-10T09:56:56;4.82;;;1.20;;
5841;SDS011;2947;52.276;9.946;2023-05-10T09:59:23;3.10;;;1.15;;
5841;SDS011;2947;52.276;9.946;2023-05-10T10:01:52;3.97;;;1.23;;
5841;SDS011;2947;52.276;9.946;2023-05-10T10:04:22;2.50;;;1.23;;
5841;SDS011;2947;52.276;9.946;2023-05-10T10:06:58;2.03;;;1.23;;
5841;SDS011;2947;52.276;9.946;2023-05-10T10:09:25;1.98;;;0.98;;
5841;SDS011;2947;52.276;9.946;2023-05-10T10:11:51;1.80;;;0.85;;
5841;SDS011;2947;52.276;9.946;2023-05-10T10:14:19;2.15;;;1.17;;
5841;SDS011;2947;52.276;9.946;2023-05-10T10:16:46;1.92;;;0.95;;
5841;SDS011;2947;52.276;9.946;2023-05-10T10:19:14;3.53;;;0.77;;
5841;SDS011;2947;52.276;9.946;2023-05-10T10:21:40;4.22;;;0.90;;
5841;SDS011;2947;52.276;9.946;2023-05-10T10:24:06;2.83;;;1.40;;
5841;SDS011;2947;52.276;9.946;2023-05-10T10:26:35;2.20;;;1.30;;
5841;SDS011;2947;52.276;9.946;2023-05-10T10:29:26;2.38;;;1.50;;
5841;SDS011;2947;52.276;9.946;2023-05-10T10:34:38;3.30;;;1.70;;
5841;SDS011;2947;52.276;9.946;2023-05-10T10:37:05;2.95;;;1.85;;
5841;SDS011;2947;52.276;9.946;2023-05-10T10:39:31;3.47;;;1.45;;
5841;SDS011;2947;52.276;9.946;2023-05-10T10:41:58;3.30;;;1.73;;
5841;SDS011;2947;52.276;9.946;2023-05-10T10:44:25;2.90;;;1.80;;
5841;SDS011;2947;52.276;9.946;2023-05-10T10:47:04;3.33;;;1.45;;
5841;SDS011;2947;52.276;9.946;2023-05-10T11:02:45;2.47;;;1.55;;
5841;SDS011;2947;52.276;9.946;2023-05-10T11:05:23;3.45;;;1.48;;
5841;SDS011;2947;52.276;9.946;2023-05-10T11:08:00;2.22;;;1.35;;
5841;SDS011;2947;52.276;9.946;2023-05-10T11:10:39;3.28;;;1.70;;
5841;SDS011;2947;52.276;9.946;2023-05-10T11:13:16;3.10;;;1.75;;
5841;SDS011;2947;52.276;9.946;2023-05-10T11:16:13;4.22;;;2.05;;
5841;SDS011;2947;52.276;9.946;2023-05-10T11:19:01;4.03;;;2.17;;
5841;SDS011;2947;52.276;9.946;2023-05-10T11:21:32;3.75;;;1.90;;
5841;SDS011;2947;52.276;9.946;2023-05-10T11:23:59;5.40;;;2.05;;
5841;SDS011;2947;52.276;9.946;2023-05-10T11:26:31;3.53;;;2.40;;
5841;SDS011;2947;52.276;9.946;2023-05-10T11:28:59;2.75;;;1.70;;
5841;SDS011;2947;52.276;9.946;2023-05-10T11:31:26;3.72;;;2.03;;
5841;SDS011;2947;52.276;9.946;2023-05-10T11:33:57;3.20;;;1.80;;
5841;SDS011;2947;52.276;9.946;2023-05-10T11:36:27;4.90;;;2.40;;
5841;SDS011;2947;52.276;9.946;2023-05-10T11:38:57;3.88;;;2.30;;
5841;SDS011;2947;52.276;9.946;2023-05-10T11:41:23;3.80;;;2.35;;
5841;SDS011;2947;52.276;9.946;2023-05-10T11:43:51;6.68;;;2.45;;
5841;SDS011;2947;52.276;9.946;2023-05-10T11:46:19;5.25;;;2.95;;
5841;SDS011;2947;52.276;9.946;2023-05-10T11:48:47;5.30;;;2.70;;
5841;SDS011;2947;52.276;9.946;2023-05-10T11:51:19;6.03;;;3.17;;
5841;SDS011;2947;52.276;9.946;2023-05-10T11:53:47;5.60;;;3.00;;
5841;SDS011;2947;52.276;9.946;2023-05-10T11:56:15;4.18;;;2.65;;
5841;SDS011;2947;52.276;9.946;2023-05-10T11:58:40;4.82;;;2.47;;
5841;SDS011;2947;52.276;9.946;2023-05-10T12:01:07;4.30;;;2.67;;
5841;SDS011;2947;52.276;9.946;2023-05-10T12:03:34;4.60;;;2.65;;
5841;SDS011;2947;52.276;9.946;2023-05-10T12:06:00;6.15;;;3.35;;
5841;SDS011;2947;52.276;9.946;2023-05-10T12:08:28;4.75;;;3.03;;
5841;SDS011;2947;52.276;9.946;2023-05-10T12:11:03;6.07;;;2.80;;
5841;SDS011;2947;52.276;9.946;2023-05-10T12:13:38;7.65;;;3.45;;
5841;SDS011;2947;52.276;9.946;2023-05-10T12:16:13;5.00;;;2.50;;
5841;SDS011;2947;52.276;9.946;2023-05-10T12:18:48;5.03;;;3.25;;
5841;SDS011;2947;52.276;9.946;2023-05-10T12:21:16;4.55;;;2.60;;
5841;SDS011;2947;52.276;9.946;2023-05-10T12:23:42;5.22;;;3.17;;
5841;SDS011;2947;52.276;9.946;2023-05-10T12:26:13;4.38;;;3.10;;
5841;SDS011;2947;52.276;9.946;2023-05-10T12:28:39;9.52;;;2.90;;
5841;SDS011;2947;52.276;9.946;2023-05-10T12:31:05;4.80;;;2.70;;
5841;SDS011;2947;52.276;9.946;2023-05-10T12:33:38;4.40;;;2.47;;
5841;SDS011;2947;52.276;9.946;2023-05-10T12:36:08;5.05;;;3.13;;
5841;SDS011;2947;52.276;9.946;2023-05-10T12:38:40;5.72;;;3.10;;
5841;SDS011;2947;52.276;9.946;2023-05-10T12:41:09;4.88;;;2.92;;
5841;SDS011;2947;52.276;9.946;2023-05-10T12:43:37;6.32;;;3.35;;
5841;SDS011;2947;52.276;9.946;2023-05-10T12:46:07;4.68;;;2.60;;
5841;SDS011;2947;52.276;9.946;2023-05-10T12:48:35;4.00;;;2.67;;
5841;SDS011;2947;52.276;9.946;2023-05-10T12:51:02;6.95;;;3.33;;
5841;SDS011;2947;52.276;9.946;2023-05-10T12:53:29;5.25;;;3.75;;
5841;SDS011;2947;52.276;9.946;2023-05-10T12:55:56;5.97;;;3.28;;
5841;SDS011;2947;52.276;9.946;2023-05-10T12:58:22;8.63;;;3.80;;
5841;SDS011;2947;52.276;9.946;2023-05-10T13:00:47;6.43;;;4.15;;
5841;SDS011;2947;52.276;9.946;2023-05-10T13:03:13;5.45;;;3.50;;
5841;SDS011;2947;52.276;9.946;2023-05-10T13:05:40;6.82;;;4.05;;
5841;SDS011;2947;52.276;9.946;2023-05-10T13:08:06;6.38;;;3.65;;
5841;SDS011;2947;52.276;9.946;2023-05-10T13:10:32;8.40;;;4.35;;
5841;SDS011;2947;52.276;9.946;2023-05-10T13:12:58;6.38;;;4.10;;
5841;SDS011;2947;52.276;9.946;2023-05-10T13:15:24;6.88;;;4.55;;
5841;SDS011;2947;52.276;9.946;2023-05-10T13:17:50;7.07;;;3.97;;
5841;SDS011;2947;52.276;9.946;2023-05-10T13:20:16;4.85;;;3.08;;
5841;SDS011;2947;52.276;9.946;2023-05-10T13:22:43;5.50;;;2.75;;
5841;SDS011;2947;52.276;9.946;2023-05-10T13:25:09;4.18;;;2.22;;
5841;SDS011;2947;52.276;9.946;2023-05-10T13:27:36;3.55;;;2.10;;
5841;SDS011;2947;52.276;9.946;2023-05-10T13:30:03;3.88;;;2.10;;
5841;SDS011;2947;52.276;9.946;2023-05-10T13:32:29;4.45;;;2.20;;
5841;SDS011;2947;52.276;9.946;2023-05-10T13:34:55;2.83;;;1.70;;
5841;SDS011;2947;52.276;9.946;2023-05-10T13:37:21;7.70;;;2.88;;
5841;SDS011;2947;52.276;9.946;2023-05-10T13:39:47;4.32;;;2.80;;
5841;SDS011;2947;52.276;9.946;2023-05-10T13:42:13;3.80;;;2.40;;
5841;SDS011;2947;52.276;9.946;2023-05-10T13:44:39;3.80;;;2.88;;
5841;SDS011;2947;52.276;9.946;2023-05-10T13:47:05;5.50;;;2.75;;
5841;SDS011;2947;52.276;9.946;2023-05-10T13:49:31;3.42;;;2.13;;
5841;SDS011;2947;52.276;9.946;2023-05-10T13:51:56;3.92;;;1.85;;
5841;SDS011;2947;52.276;9.946;2023-05-10T13:54:23;4.82;;;2.47;;
5841;SDS011;2947;52.276;9.946;2023-05-10T13:56:48;5.47;;;2.20;;
5841;SDS011;2947;52.276;9.946;2023-05-10T13:59:14;3.67;;;1.92;;
5841;SDS011;2947;52.276;9.946;2023-05-10T14:01:40;4.15;;;1.98;;
5841;SDS011;2947;52.276;9.946;2023-05-10T14:04:07;3.30;;;1.58;;
5841;SDS011;2947;52.276;9.946;2023-05-10T14:06:36;3.60;;;1.50;;
5841;SDS011;2947;52.276;9.946;2023-05-10T14:09:02;3.38;;;1.80;;
5841;SDS011;2947;52.276;9.946;2023-05-10T14:11:28;6.00;;;1.80;;
5841;SDS011;2947;52.276;9.946;2023-05-10T14:13:54;3.42;;;1.98;;
5841;SDS011;2947;52.276;9.946;2023-05-10T14:16:20;4.38;;;2.78;;
5841;SDS011;2947;52.276;9.946;2023-05-10T14:18:46;6.07;;;2.20;;
5841;SDS011;2947;52.276;9.946;2023-05-10T14:21:12;6.65;;;2.10;;
5841;SDS011;2947;52.276;9.946;2023-05-10T14:23:38;5.13;;;2.08;;
5841;SDS011;2947;52.276;9.946;2023-05-10T14:26:03;4.72;;;2.13;;
5841;SDS011;2947;52.276;9.946;2023-05-10T14:28:29;5.43;;;2.00;;
5841;SDS011;2947;52.276;9.946;2023-05-10T14:30:55;4.57;;;2.65;;
5841;SDS011;2947;52.276;9.946;2023-05-10T14:33:21;4.97;;;2.15;;
5841;SDS011;2947;52.276;9.946;2023-05-10T14:35:46;5.75;;;2.00;;
5841;SDS011;2947;52.276;9.946;2023-05-10T14:38:13;4.55;;;2.30;;
5841;SDS011;2947;52.276;9.946;2023-05-10T14:40:39;4.20;;;2.22;;
5841;SDS011;2947;52.276;9.946;2023-05-10T14:43:05;3.30;;;2.38;;
5841;SDS011;2947;52.276;9.946;2023-05-10T14:45:31;5.78;;;2.13;;
5841;SDS011;2947;52.276;9.946;2023-05-10T14:47:57;3.58;;;1.80;;
5841;SDS011;2947;52.276;9.946;2023-05-10T14:50:23;3.97;;;1.63;;
5841;SDS011;2947;52.276;9.946;2023-05-10T14:52:49;5.22;;;2.25;;
5841;SDS011;2947;52.276;9.946;2023-05-10T14:55:15;4.13;;;1.85;;
5841;SDS011;2947;52.276;9.946;2023-05-10T14:57:41;2.78;;;1.73;;
5841;SDS011;2947;52.276;9.946;2023-05-10T15:00:07;3.55;;;1.65;;
5841;SDS011;2947;52.276;9.946;2023-05-10T15:02:34;3.00;;;1.70;;
5841;SDS011;2947;52.276;9.946;2023-05-10T15:04:59;2.80;;;1.70;;
5841;SDS011;2947;52.276;9.946;2023-05-10T15:07:25;2.80;;;1.88;;
5841;SDS011;2947;52.276;9.946;2023-05-10T15:09:51;3.30;;;1.98;;
5841;SDS011;2947;52.276;9.946;2023-05-10T15:12:19;4.75;;;1.88;;
5841;SDS011;2947;52.276;9.946;2023-05-10T15:14:45;2.72;;;1.55;;
5841;SDS011;2947;52.276;9.946;2023-05-10T15:17:11;3.13;;;1.33;;
5841;SDS011;2947;52.276;9.946;2023-05-10T15:19:37;3.30;;;1.58;;
5841;SDS011;2947;52.276;9.946;2023-05-10T15:22:04;3.28;;;1.67;;
5841;SDS011;2947;52.276;9.946;2023-05-10T15:24:30;2.50;;;1.67;;
5841;SDS011;2947;52.276;9.946;2023-05-10T15:26:56;3.95;;;1.98;;
5841;SDS011;2947;52.276;9.946;2023-05-10T15:29:22;4.53;;;2.17;;
5841;SDS011;2947;52.276;9.946;2023-05-10T15:31:48;3.90;;;1.77;;
5841;SDS011;2947;52.276;9.946;2023-05-10T15:34:15;3.50;;;1.92;;
5841;SDS011;2947;52.276;9.946;2023-05-10T15:36:42;3.35;;;2.00;;
5841;SDS011;2947;52.276;9.946;2023-05-10T15:39:08;4.50;;;2.17;;
5841;SDS011;2947;52.276;9.946;2023-05-10T15:41:36;3.60;;;1.63;;
5841;SDS011;2947;52.276;9.946;2023-05-10T15:44:01;3.35;;;1.85;;
5841;SDS011;2947;52.276;9.946;2023-05-10T15:46:28;3.80;;;1.80;;
5841;SDS011;2947;52.276;9.946;2023-05-10T15:48:54;6.25;;;1.70;;
5841;SDS011;2947;52.276;9.946;2023-05-10T15:51:21;4.68;;;2.45;;
5841;SDS011;2947;52.276;9.946;2023-05-10T15:53:46;5.68;;;1.85;;
5841;SDS011;2947;52.276;9.946;2023-05-10T15:56:12;4.75;;;2.28;;
5841;SDS011;2947;52.276;9.946;2023-05-10T15:58:39;14.50;;;5.80;;